Time;durP1;ratioP1;P1;durP2;ratioP2;P2;SDS_P1;SDS_P2;PMS_P1;PMS_P2;Temp;Humidity;BMP_temperature;BMP_pressure;BME280_temperature;BME280_humidity;BME280_pressure;Samples;Min_cycle;Max_cycle;Signal;HPM_P1;HPM_P2
2021/12/22 00:04:30;;;;;;;25.80;16.07;;;-3.10;94.40;;;;;;4973240;28;20200;-92
2021/12/22 00:06:57;;;;;;;26.83;16.37;;;-3.10;94.50;;;;;;4976987;28;20255;-92
2021/12/22 00:09:24;;;;;;;29.80;17.17;;;-3.10;94.50;;;;;;4976969;28;20647;-92
2021/12/22 00:11:51;;;;;;;25.90;16.30;;;-3.10;94.50;;;;;;4985451;28;20238;-92
2021/12/22 00:14:18;;;;;;;25.93;16.03;;;-3.00;94.50;;;;;;4969067;28;20206;-92
2021/12/22 00:22:14;;;;;;;26.37;15.77;;;-2.90;95.40;;;;;;4965444;28;20216;-92
2021/12/22 00:27:24;;;;;;;26.27;16.47;;;-2.80;95.10;;;;;;4935340;28;20222;-92
2021/12/22 00:29:52;;;;;;;27.03;16.80;;;-2.70;94.80;;;;;;4974381;28;20236;-91
2021/12/22 00:32:20;;;;;;;33.40;17.43;;;-2.70;94.60;;;;;;4977131;28;20281;-92
2021/12/22 00:37:56;;;;;;;61.73;31.07;;;-2.70;94.10;;;;;;4968011;28;20300;-92
2021/12/22 00:43:25;;;;;;;31.60;18.20;;;-2.10;93.80;;;;;;4964016;28;20208;-92
2021/12/22 00:45:56;;;;;;;30.67;17.23;;;-1.70;92.90;;;;;;4961915;28;20232;-91
2021/12/22 00:53:48;;;;;;;32.90;18.20;;;-1.70;91.80;;;;;;4958568;28;20542;-92
2021/12/22 00:56:28;;;;;;;29.70;17.70;;;-2.00;91.80;;;;;;4968571;28;20307;-92
2021/12/22 01:02:02;;;;;;;32.83;18.73;;;-1.30;91.80;;;;;;4974959;28;20234;-93
2021/12/22 01:09:55;;;;;;;35.57;19.70;;;-1.10;90.90;;;;;;4960849;28;20216;-92
2021/12/22 01:12:23;;;;;;;31.97;18.60;;;-1.10;90.20;;;;;;4975279;28;20245;-92
2021/12/22 01:14:50;;;;;;;29.30;18.77;;;-1.10;89.50;;;;;;4974481;28;20214;-92
2021/12/22 01:17:18;;;;;;;30.87;19.70;;;-1.50;86.50;;;;;;4976789;28;20243;-92
2021/12/22 01:36:39;;;;;;;30.80;19.37;;;-3.10;93.40;;;;;;4950992;28;20321;-94
2021/12/22 02:02:09;;;;;;;31.77;19.13;;;-2.40;91.40;;;;;;4895524;29;20221;-92
2021/12/22 02:07:17;;;;;;;34.80;21.43;;;-2.70;92.00;;;;;;4939577;28;20247;-92
2021/12/22 02:17:58;;;;;;;28.67;16.77;;;-3.50;91.90;;;;;;4954646;28;20673;-92
2021/12/22 02:29:47;;;;;;;30.17;17.53;;;-3.50;94.00;;;;;;4920608;28;20268;-94
2021/12/22 02:32:30;;;;;;;28.47;16.63;;;-3.40;93.80;;;;;;4966261;28;20355;-94
2021/12/22 02:35:02;;;;;;;28.87;16.93;;;-3.30;93.30;;;;;;4975490;28;20223;-95
2021/12/22 02:46:40;;;;;;;23.33;14.77;;;-3.80;93.00;;;;;;4938504;28;20238;-94
2021/12/22 03:03:17;;;;;;;21.87;13.87;;;-2.80;92.70;;;;;;4987330;28;20211;-95
2021/12/22 03:06:01;;;;;;;20.87;13.73;;;-3.10;91.70;;;;;;4955810;28;20252;-95
2021/12/22 03:08:48;;;;;;;22.53;14.07;;;-3.40;91.90;;;;;;4953039;28;20223;-95
2021/12/22 03:22:51;;;;;;;24.70;13.87;;;-3.90;94.80;;;;;;4964341;28;20206;-94
2021/12/22 03:32:12;;;;;;;23.93;13.13;;;-4.30;93.10;;;;;;4944964;28;20312;-94
2021/12/22 04:01:16;;;;;;;21.60;12.47;;;-3.70;95.10;;;;;;4955505;28;20229;-95
2021/12/22 04:43:52;;;;;;;21.30;11.70;;;-3.00;91.00;;;;;;4958953;28;20583;-94
2021/12/22 04:46:38;;;;;;;18.33;11.03;;;-3.10;91.00;;;;;;4967911;28;20237;-95
2021/12/22 05:03:48;;;;;;;21.43;12.40;;;-2.20;90.90;;;;;;4953500;28;21069;-93
2021/12/22 05:06:15;;;;;;;19.67;12.47;;;-2.10;90.80;;;;;;4946874;28;20240;-93
2021/12/22 05:08:43;;;;;;;18.67;11.87;;;-2.10;87.40;;;;;;4961350;28;20283;-92
2021/12/22 05:16:33;;;;;;;23.97;12.27;;;-1.90;90.00;;;;;;4974357;28;20224;-92
2021/12/22 05:24:22;;;;;;;19.50;12.70;;;-2.10;86.60;;;;;;4974696;28;20209;-91
2021/12/22 05:26:51;;;;;;;18.07;12.20;;;-1.80;92.60;;;;;;4973397;28;20236;-91
2021/12/22 05:29:25;;;;;;;17.20;12.07;;;-2.10;90.20;;;;;;4972732;28;20217;-92
2021/12/22 05:31:56;;;;;;;20.83;13.47;;;-2.10;91.80;;;;;;4972196;28;20242;-92
2021/12/22 05:34:23;;;;;;;23.60;13.10;;;-1.80;93.10;;;;;;4969920;28;20812;-92
2021/12/22 05:36:50;;;;;;;21.93;12.90;;;-1.80;93.60;;;;;;4975326;28;20731;-93
2021/12/22 05:39:17;;;;;;;20.43;13.17;;;-1.50;92.20;;;;;;4994115;28;20338;-91
2021/12/22 05:41:44;;;;;;;17.40;12.87;;;-1.80;90.40;;;;;;4971793;28;20779;-91
2021/12/22 05:44:11;;;;;;;20.67;13.17;;;-2.10;91.40;;;;;;4977578;28;20197;-92
2021/12/22 05:49:21;;;;;;;22.43;14.47;;;-1.70;92.80;;;;;;4960093;28;20197;-90
2021/12/22 05:51:48;;;;;;;23.27;13.80;;;-1.80;92.40;;;;;;4969721;28;20763;-91
2021/12/22 05:54:14;;;;;;;22.83;14.57;;;-1.70;92.20;;;;;;4967510;28;20201;-90
2021/12/22 05:56:42;;;;;;;22.57;14.63;;;-1.80;91.00;;;;;;4945065;29;20229;-90
2021/12/22 05:59:09;;;;;;;20.07;14.30;;;-2.10;90.80;;;;;;4967707;28;20209;-90
2021/12/22 06:01:36;;;;;;;21.97;13.97;;;-1.80;93.60;;;;;;4968722;28;20205;-90
2021/12/22 06:06:46;;;;;;;21.57;14.43;;;-1.20;92.20;;;;;;4972473;28;20250;-92
2021/12/22 06:09:13;;;;;;;18.77;13.53;;;-1.20;90.50;;;;;;4958316;28;20672;-92
2021/12/22 06:11:40;;;;;;;22.80;15.03;;;-1.20;89.90;;;;;;4974885;28;20201;-91
2021/12/22 06:14:07;;;;;;;26.00;15.23;;;-1.40;87.70;;;;;;4954011;28;20215;-90
2021/12/22 06:16:36;;;;;;;22.30;15.13;;;-1.70;90.00;;;;;;4963783;28;20236;-89
2021/12/22 06:19:08;;;;;;;22.30;15.00;;;-1.80;91.70;;;;;;4956139;28;20215;-90
2021/12/22 06:21:35;;;;;;;22.13;14.67;;;-1.60;91.00;;;;;;4974097;28;20196;-88
2021/12/22 06:24:03;;;;;;;22.27;15.57;;;-1.80;91.80;;;;;;4975670;28;20205;-91
2021/12/22 06:26:31;;;;;;;21.73;14.53;;;-1.80;90.90;;;;;;4953609;28;20227;-90
2021/12/22 06:28:58;;;;;;;21.30;14.40;;;-1.60;92.20;;;;;;4958266;28;20213;-92
2021/12/22 06:31:44;;;;;;;23.00;15.10;;;-1.40;91.90;;;;;;4976860;28;20231;-90
2021/12/22 06:34:15;;;;;;;22.20;15.47;;;-1.70;91.20;;;;;;4958070;29;20276;-91
2021/12/22 06:36:43;;;;;;;22.70;15.77;;;-1.40;92.60;;;;;;4954016;28;20233;-91
2021/12/22 06:41:50;;;;;;;23.47;15.77;;;-1.20;90.80;;;;;;4967673;28;20224;-92
2021/12/22 06:46:59;;;;;;;25.57;16.20;;;-1.70;90.50;;;;;;4946072;28;20240;-92
2021/12/22 06:52:15;;;;;;;21.33;14.80;;;-2.10;91.20;;;;;;4976895;28;20268;-92
2021/12/22 06:55:06;;;;;;;20.67;14.03;;;-1.70;91.00;;;;;;4983862;28;20693;-90
2021/12/22 06:58:01;;;;;;;23.27;15.23;;;-1.60;92.00;;;;;;4968359;28;20224;-92
2021/12/22 07:06:05;;;;;;;20.93;14.40;;;-1.80;90.90;;;;;;4946856;28;20225;-91
2021/12/22 07:08:33;;;;;;;20.73;14.30;;;-1.70;91.00;;;;;;4953822;28;20352;-90
2021/12/22 07:11:02;;;;;;;21.30;14.33;;;-1.60;90.90;;;;;;4977888;28;20228;-91
2021/12/22 07:18:58;;;;;;;21.03;14.40;;;-1.50;90.30;;;;;;4964333;28;20220;-92
2021/12/22 07:21:33;;;;;;;22.70;16.00;;;-1.50;91.00;;;;;;4977265;28;20663;-92
2021/12/22 07:24:08;;;;;;;23.47;15.30;;;-1.30;91.40;;;;;;4981395;28;20291;-88
2021/12/22 07:26:55;;;;;;;21.63;14.73;;;-1.30;91.10;;;;;;4966926;28;20235;-84
2021/12/22 07:29:22;;;;;;;21.93;14.47;;;-1.10;91.10;;;;;;4977628;28;20251;-84
2021/12/22 07:31:49;;;;;;;21.50;14.50;;;-1.30;89.20;;;;;;4972685;28;20223;-84
2021/12/22 07:34:24;;;;;;;22.23;15.00;;;-1.50;90.30;;;;;;4977516;28;20291;-86
2021/12/22 07:37:00;;;;;;;22.27;14.90;;;-1.50;90.00;;;;;;4971512;28;20230;-86
2021/12/22 07:43:29;;;;;;;20.73;14.43;;;-1.70;90.20;;;;;;4985404;28;20255;-91
2021/12/22 07:45:58;;;;;;;25.83;15.77;;;-1.50;91.20;;;;;;4964739;28;20232;-88
2021/12/22 07:48:40;;;;;;;24.97;15.47;;;-1.60;90.40;;;;;;4984007;28;20212;-87
2021/12/22 07:51:06;;;;;;;22.93;14.70;;;-1.70;91.10;;;;;;4962394;28;20259;-89
2021/12/22 07:53:35;;;;;;;24.53;14.90;;;-1.40;92.30;;;;;;4980358;28;20609;-86
2021/12/22 07:59:39;;;;;;;21.57;14.47;;;-0.70;91.40;;;;;;4980065;28;20168;-87
2021/12/22 08:02:07;;;;;;;21.00;14.17;;;-0.70;87.80;;;;;;4963458;28;20703;-89
2021/12/22 08:04:34;;;;;;;23.40;14.43;;;-0.70;90.50;;;;;;4963599;28;20288;-88
2021/12/22 08:07:01;;;;;;;20.77;14.47;;;-0.80;88.30;;;;;;4981225;28;20274;-88
2021/12/22 08:09:34;;;;;;;22.10;14.70;;;-0.90;88.10;;;;;;4964385;28;20211;-93
2021/12/22 08:20:36;;;;;;;22.53;15.90;;;-1.50;90.00;;;;;;5629884;23;20226;-91
2021/12/22 08:50:27;;;;;;;22.03;13.97;;;-1.00;90.10;;;;;;4938854;29;20197;-92
2021/12/22 09:14:06;;;;;;;25.50;13.60;;;-1.50;90.00;;;;;;5018626;28;20214;-91
2021/12/22 09:25:15;;;;;;;20.33;13.77;;;-1.20;89.50;;;;;;5040446;28;20227;-92
2021/12/22 09:35:18;;;;;;;22.40;14.73;;;-0.90;86.90;;;;;;5041007;28;20182;-90
2021/12/22 10:11:01;;;;;;;22.27;13.97;;;-0.60;85.40;;;;;;5021024;28;20219;-90
2021/12/22 10:42:42;;;;;;;20.30;13.03;;;0.50;80.40;;;;;;5586067;23;20234;-90
2021/12/22 10:45:13;;;;;;;23.50;13.40;;;0.40;83.30;;;;;;4987692;28;20561;-88
2021/12/22 10:50:28;;;;;;;22.70;14.37;;;-0.10;78.70;;;;;;4978774;28;20214;-89
2021/12/22 10:52:55;;;;;;;25.20;13.53;;;-0.40;80.90;;;;;;4966510;28;20299;-89
2021/12/22 10:55:38;;;;;;;19.90;13.37;;;-0.40;85.50;;;;;;4981857;28;20206;-89
2021/12/22 10:58:28;;;;;;;22.70;13.40;;;0.00;83.00;;;;;;4978401;28;20216;-88
2021/12/22 11:01:08;;;;;;;22.17;13.07;;;0.30;81.10;;;;;;4980387;28;20207;-89
2021/12/22 11:03:42;;;;;;;22.43;13.37;;;1.20;77.20;;;;;;4978967;28;20239;-89
2021/12/22 11:09:37;;;;;;;18.53;12.47;;;2.80;61.80;;;;;;4983383;28;20196;-91
2021/12/22 11:12:05;;;;;;;18.77;12.70;;;2.90;63.30;;;;;;4998310;28;20231;-87
2021/12/22 11:14:40;;;;;;;19.57;13.50;;;2.50;60.10;;;;;;4996370;28;20286;-88
2021/12/22 11:17:09;;;;;;;17.03;12.13;;;2.20;60.20;;;;;;4993798;28;20259;-86
2021/12/22 11:19:37;;;;;;;17.10;12.67;;;1.90;62.20;;;;;;4993684;28;20664;-88
2021/12/22 11:22:10;;;;;;;18.43;12.50;;;1.70;65.80;;;;;;4992699;28;20307;-89
2021/12/22 11:24:41;;;;;;;16.97;12.97;;;1.50;66.00;;;;;;5007994;28;20210;-86
2021/12/22 11:27:10;;;;;;;17.07;12.67;;;1.20;67.70;;;;;;5009877;28;20287;-86
2021/12/22 11:29:44;;;;;;;16.37;12.27;;;0.90;71.00;;;;;;4995794;28;20272;-87
2021/12/22 11:32:13;;;;;;;20.90;13.63;;;0.70;75.20;;;;;;4991682;28;20219;-85
2021/12/22 11:34:47;;;;;;;19.57;13.03;;;0.90;75.40;;;;;;4981302;28;20248;-86
2021/12/22 11:37:15;;;;;;;22.13;13.77;;;1.00;74.00;;;;;;4980079;28;20317;-86
2021/12/22 11:39:43;;;;;;;20.50;13.73;;;1.00;75.40;;;;;;4998592;28;20206;-86
2021/12/22 11:42:13;;;;;;;20.37;13.67;;;1.00;74.60;;;;;;4992773;28;20224;-86
2021/12/22 11:44:48;;;;;;;20.77;13.23;;;1.10;74.60;;;;;;4991851;28;20203;-87
2021/12/22 11:47:17;;;;;;;18.47;13.23;;;0.90;74.60;;;;;;5003242;28;20259;-86
2021/12/22 11:49:53;;;;;;;23.00;13.60;;;0.90;77.90;;;;;;4977414;28;20771;-86
2021/12/22 11:52:31;;;;;;;20.33;13.20;;;0.90;77.00;;;;;;5000439;28;20223;-86
2021/12/22 11:55:14;;;;;;;19.00;13.47;;;0.70;76.50;;;;;;5004354;28;20209;-86
2021/12/22 11:57:42;;;;;;;17.33;12.37;;;0.80;75.00;;;;;;4987364;28;20229;-84
2021/12/22 12:00:44;;;;;;;21.03;12.80;;;1.00;76.60;;;;;;5005474;28;20231;-84
2021/12/22 12:03:26;;;;;;;19.07;13.00;;;1.20;74.70;;;;;;5006916;28;20221;-84
2021/12/22 12:06:08;;;;;;;21.03;13.67;;;1.40;74.30;;;;;;5010336;28;20226;-86
2021/12/22 12:08:38;;;;;;;20.10;13.53;;;1.40;72.90;;;;;;5000094;28;20224;-85
2021/12/22 12:11:06;;;;;;;20.70;14.17;;;0.60;75.40;;;;;;4998634;28;20259;-84
2021/12/22 12:14:04;;;;;;;19.40;13.17;;;0.40;77.20;;;;;;4999319;28;20711;-85
2021/12/22 12:22:20;;;;;;;18.43;13.30;;;-0.10;80.50;;;;;;4993621;28;20254;-85
2021/12/22 12:24:58;;;;;;;19.17;13.73;;;-0.10;81.70;;;;;;4995324;28;20230;-84
2021/12/22 12:27:41;;;;;;;16.33;12.70;;;0.00;80.00;;;;;;5015854;28;20242;-87
2021/12/22 12:30:15;;;;;;;20.17;13.87;;;0.00;83.30;;;;;;5003867;28;20239;-86
2021/12/22 12:33:05;;;;;;;19.90;13.80;;;0.00;82.20;;;;;;5001265;28;20764;-86
2021/12/22 12:35:35;;;;;;;20.07;13.97;;;0.10;80.70;;;;;;4992976;28;20233;-86
2021/12/22 12:38:12;;;;;;;18.33;13.60;;;0.20;80.80;;;;;;4995842;28;20225;-85
2021/12/22 12:41:15;;;;;;;19.30;14.50;;;0.30;80.20;;;;;;4994896;28;20285;-85
2021/12/22 12:43:53;;;;;;;20.00;13.33;;;0.00;80.80;;;;;;5003152;28;20554;-85
2021/12/22 12:46:43;;;;;;;25.07;14.03;;;0.00;81.00;;;;;;5000586;28;20305;-85
2021/12/22 12:49:42;;;;;;;19.40;13.07;;;-0.10;82.50;;;;;;4993558;28;20220;-85
2021/12/22 12:52:12;;;;;;;20.13;13.60;;;-0.10;83.30;;;;;;5007943;28;20304;-86
2021/12/22 12:54:46;;;;;;;19.53;13.53;;;-0.50;85.50;;;;;;5016408;28;20209;-86
2021/12/22 12:57:29;;;;;;;20.40;13.67;;;-0.40;85.60;;;;;;5011587;28;21166;-86
2021/12/22 13:00:09;;;;;;;18.67;12.83;;;-0.30;85.60;;;;;;4993586;28;20207;-87
2021/12/22 13:02:37;;;;;;;17.50;12.93;;;-0.20;82.80;;;;;;4997926;28;20227;-87
2021/12/22 13:05:11;;;;;;;19.60;14.00;;;-0.10;82.40;;;;;;4987170;28;20482;-88
2021/12/22 13:07:46;;;;;;;18.50;13.17;;;-0.20;83.30;;;;;;4996889;28;20634;-87
2021/12/22 13:10:23;;;;;;;18.00;13.10;;;-0.20;82.50;;;;;;4992871;28;20199;-87
2021/12/22 13:18:30;;;;;;;19.20;12.47;;;0.00;82.40;;;;;;4995497;28;20207;-89
2021/12/22 13:21:06;;;;;;;18.20;12.87;;;-0.10;81.70;;;;;;4996457;28;20227;-89
2021/12/22 13:23:34;;;;;;;20.07;12.97;;;-0.20;82.10;;;;;;5010587;28;20706;-87
2021/12/22 13:26:03;;;;;;;19.23;12.83;;;-0.30;84.10;;;;;;5009539;28;20319;-88
2021/12/22 13:28:32;;;;;;;21.40;14.00;;;-0.20;83.00;;;;;;5005751;28;20250;-87
2021/12/22 13:31:06;;;;;;;20.73;12.83;;;-0.10;82.90;;;;;;5010279;28;20243;-88
2021/12/22 13:33:37;;;;;;;18.53;13.20;;;-0.10;82.60;;;;;;4994771;28;20202;-88
2021/12/22 13:36:09;;;;;;;18.73;13.27;;;-0.10;83.10;;;;;;4972536;28;20233;-88
2021/12/22 13:38:48;;;;;;;23.33;14.20;;;-0.10;84.30;;;;;;4991709;28;20196;-87
2021/12/22 13:41:17;;;;;;;23.90;14.23;;;-0.20;83.90;;;;;;4979961;28;20231;-88
2021/12/22 13:43:45;;;;;;;23.00;14.67;;;-0.20;85.10;;;;;;4979525;28;20210;-87
2021/12/22 13:46:16;;;;;;;22.47;14.23;;;-0.20;85.00;;;;;;5009458;28;20229;-87
2021/12/22 13:48:47;;;;;;;22.20;14.57;;;-0.20;85.50;;;;;;4997476;28;20222;-88
2021/12/22 13:51:18;;;;;;;21.13;14.20;;;-0.40;85.50;;;;;;4981969;28;20237;-88
2021/12/22 13:53:47;;;;;;;22.53;14.73;;;-0.50;85.90;;;;;;4994401;28;20204;-87
2021/12/22 13:56:18;;;;;;;21.17;13.57;;;-0.40;85.60;;;;;;4972139;28;20593;-88
2021/12/22 13:58:48;;;;;;;23.37;14.50;;;-0.30;85.70;;;;;;4997054;28;20517;-87
2021/12/22 14:01:20;;;;;;;22.10;13.23;;;-0.20;85.70;;;;;;4988768;28;20656;-87
2021/12/22 14:03:50;;;;;;;23.07;14.90;;;-0.30;86.00;;;;;;4979451;28;20215;-87
2021/12/22 14:06:27;;;;;;;19.47;13.47;;;-0.30;85.90;;;;;;4988488;28;20221;-87
2021/12/22 14:09:06;;;;;;;16.83;13.27;;;-0.20;87.00;;;;;;4983966;28;20974;-88
2021/12/22 14:11:43;;;;;;;21.60;14.27;;;-0.20;85.70;;;;;;4987341;28;20232;-87
2021/12/22 14:14:28;;;;;;;19.90;13.70;;;-0.20;85.70;;;;;;4991728;28;20602;-88
2021/12/22 14:17:10;;;;;;;21.50;14.33;;;-0.20;86.70;;;;;;4984547;28;20239;-87
2021/12/22 14:19:41;;;;;;;20.37;13.53;;;-0.30;87.90;;;;;;4972431;28;20198;-87
2021/12/22 14:22:14;;;;;;;22.13;14.00;;;-0.30;89.10;;;;;;4987961;28;20224;-88
2021/12/22 14:24:46;;;;;;;21.30;13.63;;;-0.30;88.60;;;;;;4981114;28;20226;-87
2021/12/22 14:27:15;;;;;;;19.70;13.90;;;-0.20;87.90;;;;;;4986436;28;20219;-88
2021/12/22 14:29:50;;;;;;;18.10;13.40;;;-0.30;88.60;;;;;;4990494;28;20219;-88
2021/12/22 14:32:27;;;;;;;20.17;14.57;;;-0.20;88.40;;;;;;4984167;28;20673;-88
2021/12/22 14:35:03;;;;;;;18.03;12.70;;;-0.30;88.90;;;;;;4984941;28;20901;-89
2021/12/22 14:37:33;;;;;;;21.60;14.23;;;-0.30;89.10;;;;;;4996295;28;20228;-89
2021/12/22 14:40:00;;;;;;;20.30;14.30;;;-0.40;90.20;;;;;;5008868;28;20302;-89
2021/12/22 14:42:29;;;;;;;19.57;13.87;;;-0.40;90.60;;;;;;5006909;28;20325;-88
2021/12/22 14:45:19;;;;;;;24.20;14.47;;;-0.50;90.50;;;;;;4998097;28;20206;-89
2021/12/22 14:47:47;;;;;;;19.30;13.80;;;-0.50;90.70;;;;;;4985234;28;20234;-89
2021/12/22 14:50:16;;;;;;;21.20;14.50;;;-0.50;90.70;;;;;;4993327;28;20581;-88
2021/12/22 14:53:03;;;;;;;19.17;13.50;;;-0.50;91.10;;;;;;4990648;28;20314;-89
2021/12/22 14:55:46;;;;;;;26.07;13.67;;;-0.50;90.80;;;;;;4993330;28;20200;-89
2021/12/22 14:58:14;;;;;;;19.40;13.90;;;-0.50;90.60;;;;;;4981546;28;20200;-89
2021/12/22 15:00:44;;;;;;;21.67;13.60;;;-0.50;90.70;;;;;;4998293;28;20800;-89
2021/12/22 15:03:13;;;;;;;20.07;14.10;;;-0.50;90.60;;;;;;4995215;28;20315;-89
2021/12/22 15:05:42;;;;;;;18.93;13.30;;;-0.60;90.80;;;;;;4989754;28;20224;-88
2021/12/22 15:08:10;;;;;;;18.70;12.93;;;-0.60;90.50;;;;;;5004580;28;20258;-89
2021/12/22 15:10:41;;;;;;;19.07;13.20;;;-0.60;90.70;;;;;;4995993;28;20296;-89
2021/12/22 15:13:08;;;;;;;18.87;13.20;;;-0.60;90.70;;;;;;4995169;28;20284;-89
2021/12/22 15:15:37;;;;;;;21.37;13.40;;;-0.70;91.00;;;;;;4986020;28;20212;-90
2021/12/22 15:18:06;;;;;;;19.37;13.80;;;-0.80;91.10;;;;;;5001349;28;20214;-89
2021/12/22 15:20:33;;;;;;;18.90;13.60;;;-0.80;91.20;;;;;;5004597;28;20350;-89
2021/12/22 15:23:02;;;;;;;22.07;13.83;;;-1.00;91.60;;;;;;5008943;28;20290;-89
2021/12/22 15:25:31;;;;;;;19.90;13.30;;;-1.00;92.10;;;;;;4994955;28;20287;-90
2021/12/22 15:27:59;;;;;;;19.57;13.43;;;-1.00;92.30;;;;;;5000686;28;20198;-89
2021/12/22 15:30:32;;;;;;;22.53;13.93;;;-1.00;92.30;;;;;;4995013;28;20667;-89
2021/12/22 15:32:59;;;;;;;20.27;13.77;;;-1.00;92.40;;;;;;5006355;28;20329;-87
2021/12/22 15:35:26;;;;;;;22.63;13.73;;;-1.10;92.60;;;;;;5000782;28;20304;-83
2021/12/22 15:37:54;;;;;;;25.87;15.07;;;-1.00;92.70;;;;;;5005036;28;20667;-87
2021/12/22 15:40:21;;;;;;;22.83;14.40;;;-1.10;92.60;;;;;;4996221;28;20200;-88
2021/12/22 15:42:50;;;;;;;22.53;14.17;;;-1.10;92.90;;;;;;4999876;28;20709;-88
2021/12/22 15:45:17;;;;;;;23.03;14.37;;;-1.10;92.70;;;;;;4970389;28;20196;-85
2021/12/22 15:47:45;;;;;;;22.37;14.07;;;-1.10;92.70;;;;;;4986121;28;20707;-88
2021/12/22 15:50:16;;;;;;;23.87;15.63;;;-1.20;92.70;;;;;;4997039;28;20248;-88
2021/12/22 15:52:43;;;;;;;22.47;13.80;;;-1.20;93.00;;;;;;4991052;28;20343;-90
2021/12/22 15:55:11;;;;;;;20.23;13.73;;;-1.30;93.30;;;;;;4984327;28;20660;-87
2021/12/22 15:57:38;;;;;;;19.73;14.23;;;-1.20;93.40;;;;;;4989841;28;20280;-89
2021/12/22 16:00:10;;;;;;;22.33;14.27;;;-1.30;93.40;;;;;;4992561;28;20210;-85
2021/12/22 16:02:38;;;;;;;21.00;13.83;;;-1.30;93.60;;;;;;5001604;28;20290;-88
2021/12/22 16:05:06;;;;;;;21.97;14.37;;;-1.20;93.60;;;;;;4993816;28;20200;-86
2021/12/22 16:07:33;;;;;;;22.10;14.43;;;-1.30;93.30;;;;;;4986835;28;20314;-87
2021/12/22 16:10:00;;;;;;;22.33;14.20;;;-1.30;93.70;;;;;;5006429;28;20314;-87
2021/12/22 16:12:27;;;;;;;23.20;14.17;;;-1.30;93.80;;;;;;4983009;28;20228;-85
2021/12/22 16:14:55;;;;;;;21.23;14.60;;;-1.30;93.70;;;;;;4993078;28;20313;-85
2021/12/22 16:17:23;;;;;;;19.63;13.83;;;-1.30;93.70;;;;;;4993869;28;20267;-86
2021/12/22 16:19:50;;;;;;;22.43;14.03;;;-1.20;93.80;;;;;;4980858;28;20206;-86
2021/12/22 16:22:19;;;;;;;19.50;14.07;;;-1.30;93.70;;;;;;5004180;28;20223;-86
2021/12/22 16:24:47;;;;;;;20.63;14.20;;;-1.30;93.80;;;;;;5016155;28;20558;-86
2021/12/22 16:27:15;;;;;;;22.93;14.87;;;-1.30;93.80;;;;;;5002433;28;20222;-86
2021/12/22 16:29:43;;;;;;;23.93;14.63;;;-1.40;93.70;;;;;;5001876;28;20220;-86
2021/12/22 16:32:11;;;;;;;21.63;15.40;;;-1.40;93.80;;;;;;5010922;28;20302;-86
2021/12/22 16:34:46;;;;;;;25.13;13.60;;;-1.50;94.00;;;;;;5005862;28;20211;-86
2021/12/22 16:37:13;;;;;;;21.43;14.37;;;-1.50;94.10;;;;;;4983466;28;20267;-88
2021/12/22 16:39:41;;;;;;;24.53;13.90;;;-1.40;94.00;;;;;;4986391;28;20199;-86
2021/12/22 16:42:08;;;;;;;20.30;13.47;;;-1.40;94.20;;;;;;4996907;28;20348;-87
2021/12/22 16:44:35;;;;;;;19.20;13.13;;;-1.40;93.70;;;;;;5002255;28;20196;-86
2021/12/22 16:47:04;;;;;;;20.80;13.87;;;-1.40;93.70;;;;;;5006212;28;20220;-87
2021/12/22 16:49:31;;;;;;;17.97;12.93;;;-1.30;93.70;;;;;;5003734;28;20230;-89
2021/12/22 16:52:00;;;;;;;21.67;14.20;;;-1.30;93.80;;;;;;4998522;28;20326;-89
2021/12/22 16:54:28;;;;;;;23.27;14.33;;;-1.30;93.70;;;;;;4988108;28;20548;-88
2021/12/22 16:56:55;;;;;;;25.23;14.30;;;-1.40;93.70;;;;;;4994285;28;20314;-89
2021/12/22 16:59:22;;;;;;;26.77;14.47;;;-1.40;93.80;;;;;;4987723;28;20282;-90
2021/12/22 17:01:50;;;;;;;21.83;14.37;;;-1.40;93.80;;;;;;4994399;28;20227;-90
2021/12/22 17:04:17;;;;;;;24.37;14.93;;;-1.50;93.80;;;;;;4993257;28;20206;-89
2021/12/22 17:06:48;;;;;;;21.60;14.23;;;-1.50;93.80;;;;;;5007110;28;20246;-90
2021/12/22 17:09:16;;;;;;;23.20;14.47;;;-1.40;93.70;;;;;;4994806;28;20263;-88
2021/12/22 17:11:43;;;;;;;24.03;15.73;;;-1.50;93.70;;;;;;4990423;28;20684;-89
2021/12/22 17:14:12;;;;;;;20.07;14.27;;;-1.50;93.80;;;;;;4990107;28;20291;-89
2021/12/22 17:16:40;;;;;;;26.90;14.20;;;-1.50;93.70;;;;;;4996399;28;20255;-88
2021/12/22 17:19:09;;;;;;;21.10;14.37;;;-1.50;93.70;;;;;;4975660;28;20205;-89
2021/12/22 17:21:36;;;;;;;21.80;13.20;;;-1.50;93.70;;;;;;4984606;28;20235;-89
2021/12/22 17:24:03;;;;;;;21.57;14.40;;;-1.60;93.70;;;;;;5015550;28;20258;-87
2021/12/22 17:26:32;;;;;;;20.03;13.70;;;-1.60;94.10;;;;;;4988175;28;20308;-88
2021/12/22 17:28:59;;;;;;;22.30;13.60;;;-1.60;94.20;;;;;;4997613;28;20210;-89
2021/12/22 17:31:26;;;;;;;21.80;14.57;;;-1.60;94.20;;;;;;4998469;28;20340;-89
2021/12/22 17:33:53;;;;;;;22.37;14.13;;;-1.60;94.00;;;;;;4999308;28;20239;-85
2021/12/22 17:36:20;;;;;;;22.90;14.87;;;-1.60;93.70;;;;;;4999666;28;20215;-88
2021/12/22 17:38:48;;;;;;;22.83;14.20;;;-1.60;94.00;;;;;;4998371;28;20204;-86
2021/12/22 17:41:15;;;;;;;21.73;13.83;;;-1.60;94.00;;;;;;4998176;28;20343;-85
2021/12/22 17:43:46;;;;;;;21.20;14.83;;;-1.60;93.90;;;;;;4994607;28;20287;-86
2021/12/22 17:46:16;;;;;;;22.93;14.90;;;-1.60;93.80;;;;;;4998705;28;20292;-88
2021/12/22 17:48:43;;;;;;;21.07;14.27;;;-1.60;93.90;;;;;;4993131;28;20567;-89
2021/12/22 17:51:09;;;;;;;20.63;14.17;;;-1.70;94.10;;;;;;4987999;28;20320;-88
2021/12/22 17:53:37;;;;;;;21.60;14.40;;;-1.70;94.20;;;;;;5003931;28;20294;-89
2021/12/22 17:56:05;;;;;;;20.77;14.27;;;-1.70;94.10;;;;;;4997425;28;20318;-88
2021/12/22 17:58:32;;;;;;;20.17;13.87;;;-1.70;94.10;;;;;;4989847;28;20219;-86
2021/12/22 18:01:00;;;;;;;21.50;14.40;;;-1.70;94.30;;;;;;5007757;28;20231;-87
2021/12/22 18:03:32;;;;;;;23.57;14.53;;;-1.80;94.20;;;;;;4999105;28;20206;-89
2021/12/22 18:06:12;;;;;;;19.73;13.77;;;-1.70;94.20;;;;;;4996444;28;20599;-89
2021/12/22 18:08:39;;;;;;;20.50;14.73;;;-1.60;94.10;;;;;;4988908;28;20196;-87
2021/12/22 18:11:06;;;;;;;23.27;14.70;;;-1.60;93.80;;;;;;4994357;28;20235;-89
2021/12/22 18:13:34;;;;;;;27.13;15.33;;;-1.60;93.90;;;;;;4979239;28;20541;-89
2021/12/22 18:16:05;;;;;;;23.17;14.63;;;-1.80;94.10;;;;;;4989520;28;20634;-89
2021/12/22 18:18:32;;;;;;;22.93;14.70;;;-1.80;94.10;;;;;;4993554;28;20196;-90
2021/12/22 18:21:00;;;;;;;24.97;15.07;;;-1.70;94.30;;;;;;4986133;28;20227;-88
2021/12/22 18:23:28;;;;;;;25.77;14.87;;;-1.70;94.20;;;;;;4993330;28;20203;-89
2021/12/22 18:26:06;;;;;;;20.80;14.80;;;-1.80;94.10;;;;;;4993086;28;20224;-89
2021/12/22 18:28:35;;;;;;;19.60;13.87;;;-1.80;94.40;;;;;;4971135;28;20214;-89
2021/12/22 18:31:04;;;;;;;23.00;14.63;;;-1.90;94.30;;;;;;4989278;28;20228;-89
2021/12/22 18:33:37;;;;;;;21.97;14.47;;;-2.00;94.60;;;;;;4988679;28;20280;-89
2021/12/22 18:36:18;;;;;;;22.07;14.60;;;-2.00;94.60;;;;;;4983259;28;20324;-89
2021/12/22 18:38:49;;;;;;;20.07;14.40;;;-1.90;94.60;;;;;;5005392;28;20591;-89
2021/12/22 18:41:24;;;;;;;21.83;15.20;;;-1.80;94.40;;;;;;5000491;28;20674;-89
2021/12/22 18:43:54;;;;;;;20.40;13.90;;;-1.80;94.20;;;;;;5002437;28;20207;-88
2021/12/22 18:46:29;;;;;;;21.50;14.77;;;-1.90;94.30;;;;;;4996026;28;20230;-89
2021/12/22 18:48:59;;;;;;;23.17;14.77;;;-1.90;94.40;;;;;;4992027;28;20211;-88
2021/12/22 18:51:32;;;;;;;24.10;14.03;;;-1.80;94.40;;;;;;4992760;28;20659;-88
2021/12/22 18:54:03;;;;;;;26.37;15.37;;;-1.80;94.10;;;;;;4990987;28;20199;-88
2021/12/22 18:56:32;;;;;;;20.57;13.47;;;-1.80;94.00;;;;;;5000702;28;20598;-89
2021/12/22 18:59:02;;;;;;;23.33;14.70;;;-1.90;94.20;;;;;;5006870;28;20210;-88
2021/12/22 19:01:39;;;;;;;23.17;14.57;;;-1.90;94.10;;;;;;4996529;28;20227;-88
2021/12/22 19:04:13;;;;;;;21.27;14.30;;;-1.90;94.10;;;;;;5001586;28;20203;-90
2021/12/22 19:06:43;;;;;;;24.53;15.20;;;-1.90;93.80;;;;;;4999668;28;20230;-89
2021/12/22 19:09:10;;;;;;;21.47;14.20;;;-1.90;93.90;;;;;;5001596;28;20227;-89
2021/12/22 19:11:40;;;;;;;25.93;15.87;;;-1.80;93.70;;;;;;4995325;28;20236;-89
2021/12/22 19:14:13;;;;;;;29.63;15.97;;;-1.90;93.60;;;;;;5000722;28;20302;-88
2021/12/22 19:16:42;;;;;;;25.40;15.43;;;-1.90;93.60;;;;;;5003279;28;20234;-89
2021/12/22 19:19:10;;;;;;;24.00;15.63;;;-2.00;93.60;;;;;;4992383;28;20270;-89
2021/12/22 19:21:41;;;;;;;24.47;15.37;;;-2.00;93.60;;;;;;4991411;28;20234;-90
2021/12/22 19:24:08;;;;;;;24.90;16.37;;;-2.10;93.60;;;;;;4962065;28;20218;-89
2021/12/22 19:26:40;;;;;;;27.77;16.63;;;-2.00;93.90;;;;;;4987137;28;20681;-89
2021/12/22 19:29:13;;;;;;;25.30;16.57;;;-2.00;93.70;;;;;;4982462;28;20262;-88
2021/12/22 19:31:41;;;;;;;28.73;16.90;;;-2.10;93.60;;;;;;4986057;28;20365;-89
2021/12/22 19:34:19;;;;;;;28.70;17.40;;;-2.10;93.90;;;;;;4987241;28;20230;-89
2021/12/22 19:36:53;;;;;;;26.00;16.60;;;-2.10;94.00;;;;;;4987379;28;20258;-91
2021/12/22 19:39:23;;;;;;;24.77;16.23;;;-2.00;93.80;;;;;;4997381;28;20204;-92